Time;durP1;ratioP1;P1;durP2;ratioP2;P2;SDS_P1;SDS_P2;PMS_P1;PMS_P2;Temp;Humidity;BMP_temperature;BMP_pressure;BME280_temperature;BME280_humidity;BME280_pressure;Samples;Min_cycle;Max_cycle;Signal;HPM_P1;HPM_P2
2022/07/14 00:02:09;;;;;;;15.47;3.20;;;;;;;17.36;71.72;102019.94;5075572;28;20278;-45
2022/07/14 00:04:35;;;;;;;10.37;3.27;;;;;;;17.29;71.68;102023.31;5075772;28;20306;-45
2022/07/14 00:07:00;;;;;;;12.90;3.33;;;;;;;17.28;72.20;102025.13;5075951;28;20298;-45
2022/07/14 00:09:25;;;;;;;12.97;3.57;;;;;;;17.25;72.02;102030.75;5076006;28;20027;-45
2022/07/14 00:11:50;;;;;;;10.20;3.80;;;;;;;17.27;71.91;102020.75;5076461;28;20290;-47
2022/07/14 00:14:16;;;;;;;16.63;4.43;;;;;;;17.19;71.86;102016.03;5077207;28;20028;-45
2022/07/14 00:16:41;;;;;;;16.93;4.43;;;;;;;17.08;72.93;102002.69;5075989;28;20358;-46
2022/07/14 00:19:07;;;;;;;13.60;3.95;;;;;;;17.02;73.08;102000.56;5076587;28;20274;-46
2022/07/14 00:21:32;;;;;;;13.27;3.20;;;;;;;16.99;72.58;101995.44;5076705;28;20055;-47
2022/07/14 00:23:57;;;;;;;12.67;3.60;;;;;;;16.97;73.15;101982.16;5076362;28;20024;-45
2022/07/14 00:26:22;;;;;;;13.73;3.55;;;;;;;16.96;73.12;101979.59;5060997;28;20863;-45
2022/07/14 00:28:48;;;;;;;12.57;3.58;;;;;;;16.89;73.58;101987.31;5077808;28;20048;-47
2022/07/14 00:31:13;;;;;;;10.15;3.85;;;;;;;16.89;73.10;101992.69;5080574;28;20076;-45
2022/07/14 00:33:40;;;;;;;9.55;3.10;;;;;;;16.80;73.95;102013.06;5077518;28;20112;-45
2022/07/14 00:36:06;;;;;;;8.75;3.20;;;;;;;16.86;73.42;102011.72;5076486;28;20028;-46
2022/07/14 00:38:31;;;;;;;12.43;3.20;;;;;;;16.77;73.83;102005.28;5081431;28;20029;-48
2022/07/14 00:40:57;;;;;;;12.10;3.15;;;;;;;16.75;73.98;102009.94;5081251;28;20039;-48
2022/07/14 00:43:22;;;;;;;14.95;3.55;;;;;;;16.71;74.41;102010.31;5082520;28;20024;-47
2022/07/14 00:45:48;;;;;;;13.52;3.55;;;;;;;16.72;74.32;102001.25;5082141;28;20127;-48
2022/07/14 00:48:13;;;;;;;11.95;3.42;;;;;;;16.69;74.59;102005.06;5066659;28;20033;-45
2022/07/14 00:53:08;;;;;;;14.95;3.88;;;;;;;16.70;74.39;101996.03;5069941;28;20033;-77
2022/07/14 00:55:34;;;;;;;8.35;3.53;;;;;;;16.65;74.34;102006.28;5054896;28;20028;-77
2022/07/14 00:58:01;;;;;;;11.23;3.97;;;;;;;16.67;74.53;102008.84;5072568;28;20024;-77
2022/07/14 01:00:27;;;;;;;11.82;3.22;;;;;;;16.58;75.07;102011.31;5065066;28;20033;-77
2022/07/14 01:02:52;;;;;;;12.77;3.25;;;;;;;16.58;75.19;102005.97;5073840;28;20462;-77
2022/07/14 01:05:18;;;;;;;10.75;3.55;;;;;;;16.60;74.66;102008.53;5072943;28;20482;-77
2022/07/14 01:07:44;;;;;;;12.65;3.75;;;;;;;16.55;75.39;102013.41;5054994;28;20036;-77
2022/07/14 01:10:10;;;;;;;12.65;3.50;;;;;;;16.61;75.13;102016.44;5071798;28;20091;-77
2022/07/14 01:12:37;;;;;;;8.60;3.17;;;;;;;16.61;74.92;102024.47;5057547;28;20033;-77
2022/07/14 01:15:03;;;;;;;12.85;3.50;;;;;;;16.61;75.13;102027.16;5070924;28;20364;-77
2022/07/14 01:17:28;;;;;;;12.43;3.08;;;;;;;16.56;74.92;102021.34;5072116;28;20048;-78
2022/07/14 01:19:55;;;;;;;10.70;3.83;;;;;;;16.56;75.23;102032.06;5057079;28;20463;-77
2022/07/14 01:22:21;;;;;;;11.88;3.38;;;;;;;16.53;75.30;102045.72;5066940;28;20079;-77
2022/07/14 01:24:46;;;;;;;13.35;3.83;;;;;;;16.58;75.11;102035.47;5064968;28;20025;-77
2022/07/14 01:27:12;;;;;;;11.07;3.53;;;;;;;16.52;75.39;102027.94;5067709;28;20039;-77
2022/07/14 01:29:37;;;;;;;13.18;4.35;;;;;;;16.58;75.37;102023.91;5066227;28;20076;-77
2022/07/14 01:32:03;;;;;;;12.45;3.60;;;;;;;16.59;75.73;102033.66;5070681;28;20021;-77
2022/07/14 01:34:30;;;;;;;14.43;3.85;;;;;;;16.55;75.87;102038.41;5071339;28;20446;-77
2022/07/14 01:36:56;;;;;;;13.18;3.42;;;;;;;16.49;75.94;102038.94;5073521;28;20128;-77
2022/07/14 01:39:21;;;;;;;13.93;3.78;;;;;;;16.47;76.01;102038.22;5074999;28;20166;-77
2022/07/14 01:41:47;;;;;;;16.73;4.00;;;;;;;16.47;75.77;102032.84;5075480;28;20078;-77
2022/07/14 01:44:12;;;;;;;14.30;3.45;;;;;;;16.53;75.45;102034.16;5075129;28;20032;-77
2022/07/14 01:46:38;;;;;;;12.57;3.10;;;;;;;16.55;75.43;102025.00;5075115;28;20029;-77
2022/07/14 01:49:05;;;;;;;13.52;3.92;;;;;;;16.50;75.88;102032.56;5062917;28;20021;-77
2022/07/14 01:51:30;;;;;;;11.82;3.42;;;;;;;16.52;75.63;102037.81;5068270;28;20044;-77
2022/07/14 01:53:56;;;;;;;14.13;3.75;;;;;;;16.43;76.10;102029.53;5064861;28;20025;-77
2022/07/14 01:56:22;;;;;;;14.27;3.95;;;;;;;16.40;76.11;102020.91;5061180;28;20419;-77
2022/07/14 01:58:48;;;;;;;20.00;3.67;;;;;;;16.37;75.97;102016.66;5057314;28;20086;-77
2022/07/14 02:04:01;;;;;;;12.02;3.10;;;;;;;16.35;76.13;102010.56;5064749;28;20051;-77
2022/07/14 02:06:26;;;;;;;13.18;3.15;;;;;;;16.42;75.78;102017.13;5051909;28;20415;-77
2022/07/14 02:08:52;;;;;;;9.98;3.70;;;;;;;16.44;75.65;102014.31;5075864;28;20017;-77
2022/07/14 02:14:03;;;;;;;11.15;3.28;;;;;;;16.37;75.65;102023.84;5055870;28;20106;-77
2022/07/14 02:16:29;;;;;;;13.48;3.13;;;;;;;16.38;75.63;102017.50;5055119;28;20029;-77
2022/07/14 02:18:54;;;;;;;13.18;3.67;;;;;;;16.35;75.74;102013.22;5074004;28;20016;-78
2022/07/14 02:21:19;;;;;;;14.50;3.92;;;;;;;16.28;75.56;102014.72;5073374;28;20040;-77
2022/07/14 02:23:45;;;;;;;14.40;3.60;;;;;;;16.22;75.50;102016.09;5074428;28;20331;-77
2022/07/14 02:26:12;;;;;;;11.52;3.35;;;;;;;16.17;75.76;102023.66;5066102;28;20056;-77
2022/07/14 02:28:41;;;;;;;15.45;3.80;;;;;;;16.15;75.59;102022.91;5070757;28;20023;-77
2022/07/14 02:31:09;;;;;;;;;;;;;;;16.29;73.66;102027.16;5074800;28;20024;-78
2022/07/14 02:33:34;;;;;;;14.32;3.75;;;;;;;16.08;76.10;102017.19;5074328;28;19953;-77
2022/07/14 02:35:59;;;;;;;14.50;3.72;;;;;;;16.03;76.21;102014.06;5074358;28;20017;-77
2022/07/14 02:38:25;;;;;;;10.65;3.58;;;;;;;15.99;76.33;102009.09;5074199;28;20042;-77
2022/07/14 02:40:50;;;;;;;12.73;3.25;;;;;;;16.01;76.03;102001.78;5057020;28;20032;-77
2022/07/14 02:43:16;;;;;;;15.18;3.47;;;;;;;15.96;76.13;102003.97;5075294;28;20033;-78
2022/07/14 02:45:42;;;;;;;18.55;4.05;;;;;;;15.91;76.09;101998.97;5060281;28;20037;-77
2022/07/14 02:48:07;;;;;;;12.30;3.33;;;;;;;15.89;76.18;102000.94;5040088;28;20159;-77
2022/07/14 02:50:33;;;;;;;14.63;4.03;;;;;;;15.88;76.36;101992.03;5068143;28;20044;-77
2022/07/14 02:52:58;;;;;;;14.50;3.92;;;;;;;15.87;76.32;101982.31;5060585;28;20139;-77
2022/07/14 02:55:26;;;;;;;14.20;4.20;;;;;;;15.82;76.25;101983.63;5073699;28;20032;-77
2022/07/14 02:57:53;;;;;;;14.20;3.78;;;;;;;15.84;76.19;101985.22;5073338;28;20128;-77
2022/07/14 03:00:18;;;;;;;12.60;4.00;;;;;;;15.84;75.82;101993.28;5073867;28;20024;-77
2022/07/14 03:02:43;;;;;;;15.00;3.67;;;;;;;15.73;76.37;101994.09;5059610;28;20040;-77
2022/07/14 03:05:09;;;;;;;15.77;4.00;;;;;;;15.73;76.50;101998.59;5074313;28;20032;-77
2022/07/14 03:07:34;;;;;;;13.90;3.88;;;;;;;15.73;76.10;101998.59;5073601;28;20032;-77
2022/07/14 03:09:59;;;;;;;15.35;4.22;;;;;;;15.67;76.44;101993.72;5060299;28;20050;-77
2022/07/14 03:12:25;;;;;;;15.98;4.40;;;;;;;15.64;76.51;101983.28;5073852;28;20024;-77
2022/07/14 03:14:50;;;;;;;13.52;3.55;;;;;;;15.61;76.46;101984.38;5073182;28;20120;-77
2022/07/14 03:17:16;;;;;;;13.48;3.70;;;;;;;15.64;76.23;101977.94;5065939;28;20024;-78
2022/07/14 03:19:42;;;;;;;18.33;4.13;;;;;;;15.59;76.61;101970.25;5054099;28;20110;-77
2022/07/14 03:22:07;;;;;;;12.80;4.07;;;;;;;15.56;76.57;101962.47;5067435;28;20029;-77
2022/07/14 03:24:33;;;;;;;14.05;3.97;;;;;;;15.51;77.01;101968.19;5065918;28;20024;-77
2022/07/14 03:26:59;;;;;;;11.65;4.40;;;;;;;15.52;76.77;101969.03;5074322;28;20028;-78
2022/07/14 03:29:25;;;;;;;10.93;4.28;;;;;;;15.44;76.95;101972.31;5067075;28;20024;-78
2022/07/14 03:31:50;;;;;;;10.98;4.25;;;;;;;15.40;76.85;101970.84;5074213;28;20024;-77
2022/07/14 03:34:16;;;;;;;17.05;4.05;;;;;;;15.38;77.08;101962.09;5064048;28;20027;-78
2022/07/14 03:36:41;;;;;;;13.00;3.95;;;;;;;15.34;77.25;101971.34;5074150;28;20032;-78
2022/07/14 03:39:06;;;;;;;13.63;3.75;;;;;;;15.32;77.11;101965.25;5057697;28;20036;-77
2022/07/14 03:41:32;;;;;;;12.90;3.92;;;;;;;15.31;77.26;101966.25;5037100;28;20454;-78
2022/07/14 03:43:57;;;;;;;9.57;3.73;;;;;;;15.27;77.29;101971.00;5055126;28;20058;-78
2022/07/14 03:46:22;;;;;;;16.53;4.27;;;;;;;15.22;77.58;101970.50;5067928;28;20673;-78
2022/07/14 03:48:48;;;;;;;14.77;4.15;;;;;;;15.17;77.48;101969.97;5056228;28;20287;-78
2022/07/14 03:51:13;;;;;;;12.88;4.20;;;;;;;15.14;77.52;101970.25;5073242;28;20143;-77
2022/07/14 03:53:38;;;;;;;10.85;4.10;;;;;;;15.11;77.55;101982.03;5064745;28;20039;-78
2022/07/14 03:56:04;;;;;;;14.07;4.90;;;;;;;15.09;77.04;101991.16;5068408;28;20032;-77
2022/07/14 03:58:30;;;;;;;11.93;4.03;;;;;;;15.07;77.58;102001.09;5065473;28;20036;-78
2022/07/14 04:00:55;;;;;;;15.07;4.85;;;;;;;15.04;77.76;101996.00;5043408;28;20047;-77
2022/07/14 04:03:21;;;;;;;16.40;4.25;;;;;;;14.98;78.05;101992.81;5060210;28;20063;-78
2022/07/14 04:05:46;;;;;;;11.07;3.90;;;;;;;14.99;78.55;101989.19;5063035;28;20025;-78
2022/07/14 04:08:14;;;;;;;11.50;4.32;;;;;;;14.96;78.16;101994.78;5054595;28;20024;-77
2022/07/14 04:10:40;;;;;;;14.50;4.60;;;;;;;14.97;78.09;102004.50;5065193;28;20033;-77
2022/07/14 04:13:05;;;;;;;14.85;4.68;;;;;;;14.94;78.64;101994.03;5056827;28;20028;-78
2022/07/14 04:15:31;;;;;;;17.30;4.22;;;;;;;14.98;78.47;101997.31;5074529;28;20037;-77
2022/07/14 04:17:58;;;;;;;18.83;4.82;;;;;;;14.96;78.84;101993.94;5062640;28;20024;-77
2022/07/14 04:20:24;;;;;;;17.38;4.35;;;;;;;14.97;78.82;101987.59;5074624;28;20416;-77
2022/07/14 04:22:49;;;;;;;16.77;4.95;;;;;;;15.01;78.57;101990.91;5074131;28;20032;-77
2022/07/14 04:25:15;;;;;;;11.98;4.10;;;;;;;14.99;78.85;101988.34;5074445;28;20383;-77
2022/07/14 04:27:41;;;;;;;13.13;4.28;;;;;;;14.98;78.49;101983.94;5063830;28;20090;-78
2022/07/14 04:30:08;;;;;;;15.00;4.40;;;;;;;14.98;79.44;101989.31;5068616;28;20032;-77
2022/07/14 04:32:34;;;;;;;15.50;4.63;;;;;;;14.95;79.64;101989.53;5062708;28;20532;-77
2022/07/14 04:34:59;;;;;;;16.20;5.22;;;;;;;15.02;79.27;101989.91;5074812;28;20089;-77
2022/07/14 04:37:26;;;;;;;14.63;4.97;;;;;;;15.04;79.27;101991.50;5074172;28;20046;-77
2022/07/14 04:39:55;;;;;;;14.30;4.70;;;;;;;15.03;79.27;101992.47;5064911;28;20029;-77
2022/07/14 04:42:21;;;;;;;17.08;4.95;;;;;;;15.05;79.27;101981.66;5068773;28;20090;-77
2022/07/14 04:44:47;;;;;;;12.10;4.88;;;;;;;15.08;79.41;101974.22;5074511;28;20028;-77
2022/07/14 04:47:13;;;;;;;17.27;5.10;;;;;;;15.13;79.41;101972.03;5073926;28;20052;-77
2022/07/14 04:52:22;;;;;;;12.05;4.80;;;;;;;15.22;78.95;101969.63;5073134;28;20536;-77
2022/07/14 04:54:48;;;;;;;16.60;5.13;;;;;;;15.26;79.28;101976.47;5068538;28;20104;-77
2022/07/14 04:57:13;;;;;;;16.85;5.70;;;;;;;15.28;79.24;101980.69;5055212;28;20186;-77
2022/07/14 04:59:39;;;;;;;17.30;5.65;;;;;;;15.33;79.49;101975.00;5071314;28;20020;-78
2022/07/14 05:02:04;;;;;;;21.25;6.10;;;;;;;15.40;79.07;101988.75;5070992;28;20016;-77
2022/07/14 05:04:30;;;;;;;17.27;6.10;;;;;;;15.47;79.01;101992.63;5071803;28;20040;-77
2022/07/14 05:06:57;;;;;;;13.65;5.40;;;;;;;15.57;78.50;102000.78;5059985;28;20037;-77
2022/07/14 05:09:25;;;;;;;16.95;5.25;;;;;;;15.66;77.90;102000.91;5054012;28;20056;-77
2022/07/14 05:11:51;;;;;;;16.92;5.88;;;;;;;15.70;78.09;102006.88;5048716;28;20032;-77
2022/07/14 05:14:16;;;;;;;18.85;5.68;;;;;;;15.79;78.12;102002.66;5076332;28;20035;-77
2022/07/14 05:16:44;;;;;;;17.58;5.68;;;;;;;15.89;77.56;101998.25;5058301;28;20020;-77
2022/07/14 05:19:09;;;;;;;23.50;5.85;;;;;;;15.91;77.54;101996.31;5076864;28;20112;-77
2022/07/14 05:21:35;;;;;;;23.00;5.78;;;;;;;15.92;77.03;101989.97;5077043;28;20020;-78
2022/07/14 05:24:00;;;;;;;20.17;6.32;;;;;;;15.95;76.96;101991.53;5076350;28;20031;-77
2022/07/14 05:26:25;;;;;;;18.25;4.85;;;;;;;15.92;75.50;101984.63;5076793;28;20471;-77
2022/07/14 05:28:52;;;;;;;19.25;5.35;;;;;;;15.93;75.74;101991.66;5064517;28;20029;-77
2022/07/14 05:31:17;;;;;;;20.95;5.43;;;;;;;15.97;75.18;101986.91;5065959;28;20055;-77
2022/07/14 05:33:43;;;;;;;18.83;4.88;;;;;;;16.03;75.12;101987.25;5071662;28;20032;-77
2022/07/14 05:36:08;;;;;;;17.33;4.70;;;;;;;16.12;75.33;101996.41;5073499;28;20032;-77
2022/07/14 05:38:33;;;;;;;14.45;5.10;;;;;;;16.20;74.69;101982.34;5076757;28;20024;-77
2022/07/14 05:41:01;;;;;;;23.10;4.80;;;;;;;16.28;73.81;101988.75;5062378;28;20027;-77
2022/07/14 05:43:27;;;;;;;18.55;5.05;;;;;;;16.43;73.35;101981.28;5041594;28;20044;-77
2022/07/14 05:45:53;;;;;;;16.63;5.35;;;;;;;16.60;72.95;101987.94;5056082;28;20161;-78
2022/07/14 05:48:18;;;;;;;20.45;6.18;;;;;;;16.71;72.68;101996.91;5058448;28;20448;-78
2022/07/14 05:50:43;;;;;;;14.88;4.82;;;;;;;16.89;72.25;101991.84;5076619;28;20135;-78
2022/07/14 05:53:09;;;;;;;18.08;5.45;;;;;;;17.04;71.69;101993.22;5063352;28;20020;-78
2022/07/14 05:55:34;;;;;;;23.05;6.05;;;;;;;17.18;70.68;101992.84;5064020;28;20375;-78
2022/07/14 05:57:59;;;;;;;17.23;4.57;;;;;;;17.36;70.11;101979.66;5070698;28;20064;-78
2022/07/14 06:00:26;;;;;;;16.25;5.57;;;;;;;17.52;69.40;101984.53;5066459;28;20021;-78
2022/07/14 06:02:52;;;;;;;17.70;4.65;;;;;;;17.60;68.94;101997.28;5062635;28;20115;-77
2022/07/14 06:05:17;;;;;;;16.85;4.60;;;;;;;17.67;68.11;101989.53;5076674;28;20633;-77
2022/07/14 06:07:42;;;;;;;18.52;4.78;;;;;;;17.79;68.52;101987.63;5054793;28;20036;-78
2022/07/14 06:10:12;;;;;;;13.30;4.00;;;;;;;17.99;67.67;101996.63;5070455;28;20109;-79
2022/07/14 06:12:37;;;;;;;;;;;;;;;18.15;68.68;101991.53;5058487;28;20353;-79
2022/07/14 06:15:05;;;;;;;16.85;4.60;;;;;;;18.35;66.27;101995.09;5074668;28;20342;-80
2022/07/14 06:17:31;;;;;;;17.17;4.47;;;;;;;18.44;65.49;101990.72;5076616;28;20017;-79
2022/07/14 06:19:56;;;;;;;15.13;4.65;;;;;;;18.51;65.03;101988.31;5075336;28;20032;-79
2022/07/14 06:22:21;;;;;;;15.45;4.78;;;;;;;18.52;65.26;101980.09;5072731;28;20032;-80
2022/07/14 06:24:48;;;;;;;18.20;4.60;;;;;;;18.61;64.75;101979.22;5072276;28;20460;-80
2022/07/14 06:27:14;;;;;;;13.52;5.13;;;;;;;18.89;64.31;101979.38;5048047;28;20036;-80
2022/07/14 06:29:39;;;;;;;19.52;4.50;;;;;;;19.18;64.20;101981.16;5063802;28;20041;-79
2022/07/14 06:32:05;;;;;;;16.65;4.47;;;;;;;19.35;63.23;101984.91;5068149;28;20540;-80
2022/07/14 06:34:30;;;;;;;15.07;4.45;;;;;;;19.46;61.41;101989.28;5074745;28;20036;-79
2022/07/14 06:36:55;;;;;;;19.30;3.88;;;;;;;19.53;61.24;101993.91;5075433;28;20036;-80
2022/07/14 06:39:21;;;;;;;17.45;3.78;;;;;;;19.73;60.99;101985.75;5075085;28;20094;-80
2022/07/14 06:41:46;;;;;;;22.95;5.07;;;;;;;19.92;60.54;101987.53;5076325;28;20082;-80
2022/07/14 06:44:13;;;;;;;15.57;4.07;;;;;;;20.06;60.70;101986.16;5075819;28;20107;-80
2022/07/14 06:46:38;;;;;;;13.32;4.10;;;;;;;20.21;59.67;101990.00;5069804;28;20041;-81
2022/07/14 06:49:04;;;;;;;16.45;4.03;;;;;;;20.33;58.43;101998.72;5074346;28;20397;-80
2022/07/14 06:51:29;;;;;;;18.23;4.45;;;;;;;20.48;58.61;102002.59;5062603;28;20053;-81
2022/07/14 06:53:55;;;;;;;15.13;4.10;;;;;;;20.60;58.22;101995.13;5075761;28;20464;-80
2022/07/14 06:56:21;;;;;;;15.00;4.43;;;;;;;20.66;56.92;101988.28;5075403;28;20031;-80
2022/07/14 06:58:46;;;;;;;18.13;4.40;;;;;;;20.80;57.02;101990.41;5076124;28;20074;-80
2022/07/14 07:01:12;;;;;;;15.65;4.68;;;;;;;20.87;56.24;101990.63;5075841;28;20044;-80
2022/07/14 07:03:38;;;;;;;12.77;4.38;;;;;;;21.05;56.28;101985.19;5075365;28;20550;-80
2022/07/14 07:08:51;;;;;;;15.10;4.22;;;;;;;21.44;54.29;101987.44;5069217;28;20459;-79
2022/07/14 07:11:17;;;;;;;17.77;4.47;;;;;;;21.52;53.16;101986.66;5061707;28;20058;-81
2022/07/14 07:13:42;;;;;;;17.08;4.47;;;;;;;21.68;53.71;101989.41;5070205;28;20048;-80
2022/07/14 07:16:08;;;;;;;13.80;4.03;;;;;;;21.86;52.27;101988.47;5053094;28;20013;-80
2022/07/14 07:18:35;;;;;;;13.95;3.67;;;;;;;21.94;52.22;101985.81;5075475;28;20059;-80
2022/07/14 07:21:00;;;;;;;15.02;4.07;;;;;;;22.14;52.28;101978.22;5073627;28;20067;-80
2022/07/14 07:23:26;;;;;;;17.80;3.85;;;;;;;22.29;51.97;101973.88;5075390;28;20426;-79
2022/07/14 07:25:52;;;;;;;11.82;3.42;;;;;;;22.48;51.52;101974.56;5075982;28;20386;-79
2022/07/14 07:28:17;;;;;;;17.17;4.00;;;;;;;22.56;50.72;101963.75;5068925;28;20070;-79
2022/07/14 07:30:42;;;;;;;14.63;3.95;;;;;;;22.90;50.52;101971.69;5074447;28;20112;-79
2022/07/14 07:33:08;;;;;;;13.27;4.05;;;;;;;23.12;50.46;101971.19;5073332;28;20441;-79
2022/07/14 07:35:33;;;;;;;11.52;3.28;;;;;;;23.26;49.23;101971.31;5048035;28;20059;-78
2022/07/14 07:37:59;;;;;;;11.85;3.30;;;;;;;23.46;47.73;101963.59;5063152;28;20525;-79
2022/07/14 07:40:24;;;;;;;9.20;3.10;;;;;;;23.54;46.87;101953.75;5067991;28;20016;-77
2022/07/14 07:42:49;;;;;;;12.43;3.33;;;;;;;23.59;45.99;101952.19;5076167;28;20028;-80
2022/07/14 07:45:15;;;;;;;10.57;2.78;;;;;;;23.75;46.10;101945.84;5064622;28;20083;-80
2022/07/14 07:47:40;;;;;;;12.63;2.90;;;;;;;24.00;45.29;101945.72;5070558;28;20028;-79
2022/07/14 07:50:06;;;;;;;11.55;2.83;;;;;;;24.03;43.34;101939.91;5069134;28;20040;-79
2022/07/14 07:52:31;;;;;;;11.10;2.75;;;;;;;24.33;45.07;101949.03;5063849;28;20075;-79
2022/07/14 07:54:57;;;;;;;13.80;3.40;;;;;;;24.46;45.20;101953.00;5068735;28;20028;-79
2022/07/14 07:57:22;;;;;;;11.65;3.35;;;;;;;24.53;44.47;101943.94;5051664;28;20033;-79
2022/07/14 07:59:50;;;;;;;12.50;3.15;;;;;;;24.73;44.05;101944.31;5053342;28;20033;-79
2022/07/14 08:02:17;;;;;;;14.27;3.22;;;;;;;24.66;42.27;101946.06;5065823;28;20099;-79
2022/07/14 08:04:46;;;;;;;11.00;3.10;;;;;;;24.73;42.67;101943.44;5059193;28;20464;-78
2022/07/14 08:07:11;;;;;;;12.20;2.85;;;;;;;24.78;42.80;101930.19;5065603;28;20512;-79
2022/07/14 08:09:36;;;;;;;28.83;3.77;;;;;;;25.07;43.20;101936.66;5037940;28;20135;-79
2022/07/14 08:12:01;;;;;;;14.47;3.30;;;;;;;25.04;43.79;101927.00;5055937;28;20625;-79
2022/07/14 08:17:11;;;;;;;51.03;5.07;;;;;;;25.46;41.54;101930.09;5067320;28;20048;-78
2022/07/14 08:19:36;;;;;;;40.43;4.30;;;;;;;25.66;41.05;101927.59;5069752;28;20024;-78
2022/07/14 08:22:03;;;;;;;12.55;2.67;;;;;;;25.85;40.44;101910.66;5069786;28;20653;-79
2022/07/14 08:24:29;;;;;;;18.75;3.42;;;;;;;26.06;40.06;101924.50;5073768;28;20100;-79
2022/07/14 08:26:54;;;;;;;8.80;2.53;;;;;;;26.33;40.66;101912.84;5072672;28;20475;-80
2022/07/14 08:29:20;;;;;;;10.82;2.47;;;;;;;26.37;39.83;101914.09;5067371;28;20020;-79
2022/07/14 08:31:46;;;;;;;8.27;2.50;;;;;;;26.53;38.56;101918.44;5072174;28;20063;-81
2022/07/14 08:34:11;;;;;;;9.00;2.80;;;;;;;26.52;38.61;101911.31;5066163;28;20278;-78
2022/07/14 08:36:37;;;;;;;8.15;2.50;;;;;;;26.61;39.35;101913.88;5072402;28;20028;-79
2022/07/14 08:39:05;;;;;;;8.73;2.40;;;;;;;26.67;38.82;101915.84;5064538;28;20441;-78
2022/07/14 08:41:32;;;;;;;9.60;2.73;;;;;;;26.56;39.42;101903.56;5071131;28;20025;-78
2022/07/14 08:43:58;;;;;;;8.63;2.45;;;;;;;26.29;40.34;101913.41;5067634;28;20036;-78
2022/07/14 08:46:23;;;;;;;12.63;2.50;;;;;;;26.43;37.48;101915.22;5068843;28;20025;-78
2022/07/14 08:48:51;;;;;;;12.43;2.88;;;;;;;26.37;38.08;101926.91;5071786;28;20052;-78
2022/07/14 08:51:17;;;;;;;6.07;2.67;;;;;;;26.23;37.83;101920.50;5064845;28;20052;-78
2022/07/14 08:53:44;;;;;;;8.85;3.10;;;;;;;26.57;36.86;101911.53;5066926;28;20040;-81
2022/07/14 08:56:11;;;;;;;11.93;3.38;;;;;;;26.69;37.54;101914.59;5058506;28;20099;-80
2022/07/14 08:58:37;;;;;;;5.53;2.60;;;;;;;26.95;38.65;101905.75;5067572;28;20484;-80
2022/07/14 09:01:02;;;;;;;13.23;2.90;;;;;;;26.97;38.97;101916.47;5065300;28;20086;-80
2022/07/14 09:03:27;;;;;;;10.57;3.07;;;;;;;26.99;37.41;101911.66;5070105;28;20036;-80
2022/07/14 09:05:53;;;;;;;9.13;2.55;;;;;;;27.31;37.59;101909.31;5061136;28;20303;-79
2022/07/14 09:08:18;;;;;;;8.13;2.63;;;;;;;27.38;35.08;101907.47;5069032;28;20021;-80
2022/07/14 09:10:45;;;;;;;9.52;2.80;;;;;;;27.51;36.32;101909.38;5075718;28;20082;-80
2022/07/14 09:13:19;;;;;;;7.43;2.42;;;;;;;27.66;37.98;101901.03;5071643;28;20103;-80
2022/07/14 09:15:46;;;;;;;4.75;2.40;;;;;;;27.93;34.51;101901.13;5071545;28;20116;-80
2022/07/14 09:18:23;;;;;;;12.38;3.22;;;;;;;28.06;35.63;101909.34;5058171;28;20436;-80
2022/07/14 09:20:49;;;;;;;6.63;2.60;;;;;;;28.23;33.98;101904.34;5052774;28;20016;-79
2022/07/14 09:23:15;;;;;;;6.72;2.30;;;;;;;28.34;33.32;101903.69;5068636;28;20033;-82
2022/07/14 09:25:40;;;;;;;9.73;2.55;;;;;;;28.30;32.45;101907.06;5069436;28;20462;-80
2022/07/14 09:28:07;;;;;;;8.43;2.80;;;;;;;28.48;33.77;101910.00;5067650;28;20533;-80
2022/07/14 09:30:32;;;;;;;11.63;3.08;;;;;;;28.51;32.81;101900.53;5057665;28;20029;-80
2022/07/14 09:33:00;;;;;;;8.73;2.60;;;;;;;28.83;32.62;101900.72;5056166;28;20343;-80
2022/07/14 09:35:39;;;;;;;9.27;2.85;;;;;;;28.91;32.68;101892.28;5073573;28;20025;-80
2022/07/14 09:38:23;;;;;;;6.22;2.33;;;;;;;29.03;33.79;101896.06;5072942;28;20032;-80
2022/07/14 09:40:49;;;;;;;11.13;2.53;;;;;;;29.05;31.96;101898.56;5061685;28;20429;-80
2022/07/14 09:43:15;;;;;;;10.50;2.70;;;;;;;29.28;32.16;101898.09;5062685;28;20034;-80
2022/07/14 09:45:47;;;;;;;8.55;2.47;;;;;;;29.46;31.84;101895.50;5070530;28;20025;-79
2022/07/14 09:48:15;;;;;;;5.90;1.95;;;;;;;29.25;28.40;101893.88;5072281;28;20019;-81
2022/07/14 09:50:56;;;;;;;8.35;1.80;;;;;;;29.15;31.33;101894.31;5072715;28;20235;-80
2022/07/14 09:53:33;;;;;;;4.63;1.80;;;;;;;29.11;31.36;101893.06;5058053;28;20032;-80
2022/07/14 09:56:07;;;;;;;5.75;1.45;;;;;;;29.13;30.91;101895.59;5062181;28;20032;-81
2022/07/14 09:58:56;;;;;;;6.18;1.80;;;;;;;29.43;30.66;101900.56;5059214;28;20038;-81
2022/07/14 10:01:23;;;;;;;8.75;2.10;;;;;;;29.15;28.88;101904.44;5059525;28;20487;-81
2022/07/14 10:03:51;;;;;;;9.70;2.33;;;;;;;29.13;30.64;101898.34;5062945;28;20364;-81
2022/07/14 10:06:17;;;;;;;6.63;1.92;;;;;;;29.28;29.25;101890.72;5076204;28;20043;-81
2022/07/14 10:08:45;;;;;;;5.75;1.70;;;;;;;29.20;28.71;101899.16;5061824;28;20077;-81
2022/07/14 10:11:11;;;;;;;4.60;1.58;;;;;;;29.08;29.15;101892.69;5074534;28;20043;-81
2022/07/14 10:13:38;;;;;;;8.93;2.15;;;;;;;29.14;30.80;101892.66;5075735;28;20313;-81
2022/07/14 10:16:04;;;;;;;8.13;1.77;;;;;;;28.85;29.89;101896.72;5075608;28;20021;-81
2022/07/14 10:18:29;;;;;;;5.18;1.50;;;;;;;29.13;30.04;101901.06;5075552;28;20025;-80
2022/07/14 10:20:57;;;;;;;4.93;1.40;;;;;;;28.85;30.12;101901.38;5065876;28;20025;-81
2022/07/14 10:23:23;;;;;;;6.10;1.75;;;;;;;29.02;31.14;101905.28;5073750;28;20032;-80
2022/07/14 10:25:52;;;;;;;4.00;1.38;;;;;;;28.92;30.59;101908.47;5065947;28;20131;-81
2022/07/14 10:28:17;;;;;;;;;;;;;;;29.58;32.59;101909.31;5073498;28;20101;-81
2022/07/14 10:31:24;;;;;;;7.30;1.67;;;;;;;29.25;32.28;101904.84;5055333;28;20362;-81
2022/07/14 10:34:02;;;;;;;5.25;1.70;;;;;;;29.60;30.98;101914.56;5055227;28;20029;-81
2022/07/14 10:36:47;;;;;;;5.75;1.77;;;;;;;29.88;30.97;101906.03;5071405;28;20025;-81
2022/07/14 10:39:43;;;;;;;4.35;1.50;;;;;;;30.31;30.37;101908.00;5062902;28;20029;-79
2022/07/14 10:42:39;;;;;;;6.82;1.75;;;;;;;30.42;30.42;101893.59;5069474;28;20037;-81
2022/07/14 10:45:05;;;;;;;4.97;1.70;;;;;;;30.39;29.30;101902.28;5060749;28;20025;-81
2022/07/14 10:47:48;;;;;;;8.23;1.70;;;;;;;30.26;30.89;101902.38;5057333;28;20562;-81
2022/07/14 10:50:26;;;;;;;7.00;1.70;;;;;;;30.02;31.23;101901.28;5073758;28;20021;-81
2022/07/14 10:52:55;;;;;;;7.10;2.28;;;;;;;30.02;29.04;101904.00;5063254;28;20067;-81
2022/07/14 10:55:42;;;;;;;5.07;1.40;;;;;;;30.04;27.54;101901.88;5066579;28;20450;-81
2022/07/14 10:58:07;;;;;;;3.95;1.50;;;;;;;29.81;27.19;101902.47;5072177;28;20064;-81
2022/07/14 11:00:41;;;;;;;6.57;1.50;;;;;;;29.91;29.82;101894.63;5074817;28;20055;-81
2022/07/14 11:03:44;;;;;;;3.63;1.40;;;;;;;30.17;30.56;101900.94;5071854;28;20119;-81
2022/07/14 11:06:09;;;;;;;3.85;1.60;;;;;;;30.02;28.13;101899.38;5061979;28;20070;-80
2022/07/14 11:09:05;;;;;;;9.47;1.57;;;;;;;30.36;29.16;101896.34;5074931;28;20032;-80
2022/07/14 11:11:32;;;;;;;7.57;1.77;;;;;;;30.65;28.20;101894.03;5075411;28;20110;-81
2022/07/14 11:14:00;;;;;;;5.13;1.60;;;;;;;30.66;27.96;101898.44;5061451;28;20025;-81
2022/07/14 11:16:47;;;;;;;3.95;1.60;;;;;;;31.05;29.27;101901.84;5065829;28;20030;-81
2022/07/14 11:19:23;;;;;;;6.90;1.60;;;;;;;31.04;27.69;101905.66;5075775;28;20379;-80
2022/07/14 11:22:18;;;;;;;5.97;1.77;;;;;;;31.44;28.32;101899.66;5065844;28;20032;-80
2022/07/14 11:25:00;;;;;;;5.43;1.70;;;;;;;31.36;28.02;101898.91;5074653;28;20028;-79
2022/07/14 11:27:40;;;;;;;7.38;1.95;;;;;;;31.19;27.47;101889.63;5071466;28;20036;-79
2022/07/14 11:30:29;;;;;;;6.10;1.60;;;;;;;31.30;28.34;101885.28;5072799;28;20017;-80
2022/07/14 11:33:04;;;;;;;3.80;1.60;;;;;;;31.02;27.58;101881.19;5062663;28;20049;-79
2022/07/14 11:38:30;;;;;;;5.25;1.63;;;;;;;30.97;28.42;101889.25;5075051;28;20066;-79
2022/07/14 11:41:02;;;;;;;8.00;1.83;;;;;;;30.76;29.53;101887.78;5065356;28;20029;-80